Time;durP1;ratioP1;P1;durP2;ratioP2;P2;SDS_P1;SDS_P2;PMS_P1;PMS_P2;Temp;Humidity;BMP_temperature;BMP_pressure;BME280_temperature;BME280_humidity;BME280_pressure;Samples;Min_cycle;Max_cycle;Signal;HPM_P1;HPM_P2
2022/11/10 00:00:47;;;;;;;11.40;9.10;;;;;;;;;;5051775;28;20037;-77
2022/11/10 00:03:34;;;;;;;11.85;8.52;;;;;;;;;;5046491;28;20523;-77
2022/11/10 00:06:20;;;;;;;10.23;8.63;;;;;;;;;;5044601;28;20105;-76
2022/11/10 00:09:06;;;;;;;10.18;7.95;;;;;;;;;;5053343;28;20059;-77
2022/11/10 00:11:52;;;;;;;11.70;9.52;;;;;;;;;;5045338;28;20374;-76
2022/11/10 00:17:43;;;;;;;10.60;8.35;;;;;;;;;;5046070;28;20044;-76
2022/11/10 00:20:29;;;;;;;11.50;7.82;;;;;;;;;;5049395;28;20163;-76
2022/11/10 00:23:15;;;;;;;10.52;8.38;;;;;;;;;;5046723;28;20572;-76
2022/11/10 00:26:01;;;;;;;10.57;7.97;;;;;;;;;;5043275;28;20091;-76
2022/11/10 00:28:47;;;;;;;11.52;8.88;;;;;;;;;;5034186;28;20045;-76
2022/11/10 00:31:33;;;;;;;10.63;8.55;;;;;;;;;;5029193;28;20049;-76
2022/11/10 00:34:19;;;;;;;10.30;8.05;;;;;;;;;;5038737;28;20528;-76
2022/11/10 00:37:04;;;;;;;10.57;8.60;;;;;;;;;;5046602;28;20052;-76
2022/11/10 00:39:50;;;;;;;11.43;8.20;;;;;;;;;;5041923;28;20166;-76
2022/11/10 00:42:36;;;;;;;11.38;8.57;;;;;;;;;;5041189;28;20044;-77
2022/11/10 00:45:22;;;;;;;10.63;8.68;;;;;;;;;;5042881;28;20041;-76
2022/11/10 00:48:07;;;;;;;9.45;8.13;;;;;;;;;;5048602;28;20082;-76
2022/11/10 00:50:53;;;;;;;11.23;9.02;;;;;;;;;;5029713;28;20045;-76
2022/11/10 00:53:39;;;;;;;9.65;7.65;;;;;;;;;;5038987;28;20076;-76
2022/11/10 00:56:25;;;;;;;11.82;8.00;;;;;;;;;;5036517;28;20033;-76
2022/11/10 00:59:11;;;;;;;9.85;7.40;;;;;;;;;;5038994;28;20060;-76
2022/11/10 01:01:57;;;;;;;9.60;6.57;;;;;;;;;;5048222;28;20610;-76
2022/11/10 01:04:42;;;;;;;8.60;7.28;;;;;;;;;;5048188;28;20505;-76
2022/11/10 01:07:28;;;;;;;8.45;6.65;;;;;;;;;;5057745;28;20040;-74
2022/11/10 01:10:14;;;;;;;9.18;6.70;;;;;;;;;;5057252;28;20048;-76
2022/11/10 01:13:00;;;;;;;7.00;6.15;;;;;;;;;;5053811;28;20043;-76
2022/11/10 01:15:45;;;;;;;8.18;6.72;;;;;;;;;;5045536;28;20124;-76
2022/11/10 01:18:31;;;;;;;9.27;7.35;;;;;;;;;;5047773;28;20044;-76
2022/11/10 01:21:17;;;;;;;9.73;7.38;;;;;;;;;;5059740;28;20040;-76
2022/11/10 01:24:04;;;;;;;7.70;6.90;;;;;;;;;;5067111;28;20051;-76
2022/11/10 01:26:49;;;;;;;7.80;6.78;;;;;;;;;;5059094;28;20049;-76
2022/11/10 01:29:35;;;;;;;7.97;7.18;;;;;;;;;;5032222;28;20183;-77
2022/11/10 01:32:21;;;;;;;8.80;6.68;;;;;;;;;;5053240;28;20492;-76
2022/11/10 01:35:07;;;;;;;8.35;6.88;;;;;;;;;;5048066;28;20044;-76
2022/11/10 01:37:53;;;;;;;10.30;7.15;;;;;;;;;;5067684;28;20056;-77
2022/11/10 01:40:39;;;;;;;9.63;7.13;;;;;;;;;;5062880;28;20048;-76
2022/11/10 01:43:27;;;;;;;8.35;6.68;;;;;;;;;;5036302;28;20412;-76
2022/11/10 01:46:13;;;;;;;7.57;6.20;;;;;;;;;;5059171;28;20496;-76
2022/11/10 01:49:00;;;;;;;6.57;5.85;;;;;;;;;;5037883;28;20401;-76
2022/11/10 01:51:53;;;;;;;7.47;6.43;;;;;;;;;;5030286;28;20055;-76
2022/11/10 01:54:41;;;;;;;9.43;6.82;;;;;;;;;;5047360;28;20094;-76
2022/11/10 01:57:27;;;;;;;7.00;6.30;;;;;;;;;;5047951;28;20048;-76
2022/11/10 02:00:13;;;;;;;8.27;6.97;;;;;;;;;;5061957;28;20043;-76
2022/11/10 02:03:02;;;;;;;7.80;6.45;;;;;;;;;;5049364;28;20037;-75
2022/11/10 02:05:48;;;;;;;7.82;7.03;;;;;;;;;;5042977;28;20052;-76
2022/11/10 02:08:34;;;;;;;8.05;6.65;;;;;;;;;;5028699;28;20065;-76
2022/11/10 02:11:21;;;;;;;8.60;6.60;;;;;;;;;;5045650;28;20128;-76
2022/11/10 02:14:07;;;;;;;7.93;6.03;;;;;;;;;;5066504;28;20041;-76
2022/11/10 02:16:53;;;;;;;7.63;6.40;;;;;;;;;;5049252;28;20052;-77
2022/11/10 02:19:40;;;;;;;7.68;6.45;;;;;;;;;;5055614;28;20475;-77
2022/11/10 02:22:26;;;;;;;8.50;6.55;;;;;;;;;;5064916;28;20048;-77
2022/11/10 02:25:16;;;;;;;8.50;7.22;;;;;;;;;;5043127;28;20045;-77
2022/11/10 02:28:02;;;;;;;8.98;6.40;;;;;;;;;;5059093;28;20535;-76
2022/11/10 02:30:47;;;;;;;8.07;6.88;;;;;;;;;;5067376;28;20050;-76
2022/11/10 02:33:33;;;;;;;7.80;5.85;;;;;;;;;;5063339;28;20071;-76
2022/11/10 02:36:20;;;;;;;8.18;6.32;;;;;;;;;;5050313;28;20041;-76
2022/11/10 02:39:05;;;;;;;7.22;6.40;;;;;;;;;;5048597;28;20048;-77
2022/11/10 02:41:51;;;;;;;9.00;6.95;;;;;;;;;;5033668;28;20044;-77
2022/11/10 02:44:37;;;;;;;7.38;6.00;;;;;;;;;;5058053;28;20125;-76
2022/11/10 02:47:23;;;;;;;10.18;7.20;;;;;;;;;;5044455;28;20044;-76
2022/11/10 02:50:09;;;;;;;11.60;7.50;;;;;;;;;;5039445;28;20048;-77
2022/11/10 02:52:55;;;;;;;9.70;7.32;;;;;;;;;;5056959;28;20051;-76
2022/11/10 02:55:41;;;;;;;7.47;6.50;;;;;;;;;;5058009;28;20047;-77
2022/11/10 02:58:27;;;;;;;11.45;6.75;;;;;;;;;;5059322;28;20480;-77
2022/11/10 03:01:13;;;;;;;7.25;6.18;;;;;;;;;;5066215;28;20036;-77
2022/11/10 03:03:59;;;;;;;10.73;7.32;;;;;;;;;;5047095;28;20496;-76
2022/11/10 03:06:45;;;;;;;9.60;6.20;;;;;;;;;;5042850;28;20114;-77
2022/11/10 03:09:31;;;;;;;7.85;6.25;;;;;;;;;;5037520;28;20040;-77
2022/11/10 03:12:17;;;;;;;7.88;6.38;;;;;;;;;;5037072;28;20111;-77
2022/11/10 03:15:03;;;;;;;7.80;6.30;;;;;;;;;;5042467;28;20048;-77
2022/11/10 03:17:49;;;;;;;6.90;5.90;;;;;;;;;;5041942;28;20503;-77
2022/11/10 03:20:35;;;;;;;8.75;6.50;;;;;;;;;;5047957;28;20039;-77
2022/11/10 03:23:20;;;;;;;8.73;6.93;;;;;;;;;;5050236;28;20122;-77
2022/11/10 03:26:07;;;;;;;8.63;6.55;;;;;;;;;;5038570;28;20592;-77
2022/11/10 03:28:53;;;;;;;8.40;6.75;;;;;;;;;;5056509;28;20392;-77
2022/11/10 03:31:38;;;;;;;8.88;6.28;;;;;;;;;;5045365;28;20508;-77
2022/11/10 03:34:24;;;;;;;7.45;6.28;;;;;;;;;;5050341;28;20052;-76
2022/11/10 03:37:16;;;;;;;8.65;6.25;;;;;;;;;;5039328;28;20041;-76
2022/11/10 03:40:02;;;;;;;8.75;7.10;;;;;;;;;;5038506;28;20076;-77
2022/11/10 03:42:48;;;;;;;8.27;7.18;;;;;;;;;;5039472;28;20485;-77
2022/11/10 03:45:33;;;;;;;8.38;6.50;;;;;;;;;;5066339;28;20068;-76
2022/11/10 03:48:19;;;;;;;8.68;6.53;;;;;;;;;;5069623;28;20173;-76
2022/11/10 03:51:05;;;;;;;6.97;6.28;;;;;;;;;;5066784;28;20047;-77
2022/11/10 03:53:51;;;;;;;7.93;6.22;;;;;;;;;;5046385;28;20052;-77
2022/11/10 03:56:37;;;;;;;9.95;6.65;;;;;;;;;;5040754;28;20044;-76
2022/11/10 03:59:23;;;;;;;7.50;6.60;;;;;;;;;;5042516;28;20033;-76
2022/11/10 04:02:08;;;;;;;8.60;6.50;;;;;;;;;;5047722;28;20102;-77
2022/11/10 04:11:04;;;;;;;8.40;6.68;;;;;;;;;;5041238;28;20057;-76
2022/11/10 04:16:56;;;;;;;8.15;6.63;;;;;;;;;;5036891;28;20052;-76
2022/11/10 04:19:41;;;;;;;8.35;6.70;;;;;;;;;;5029011;28;20053;-76
2022/11/10 04:26:27;;;;;;;10.02;7.22;;;;;;;;;;5058673;28;20547;-76
2022/11/10 04:28:38;;;;;;;8.27;6.53;;;;;;;;;;5043050;28;20414;-76
2022/11/10 04:31:25;;;;;;;8.50;6.53;;;;;;;;;;5060408;28;20048;-76
2022/11/10 04:34:12;;;;;;;8.52;7.15;;;;;;;;;;5058083;28;20154;-77
2022/11/10 04:36:58;;;;;;;13.30;7.65;;;;;;;;;;5046792;28;20041;-77
2022/11/10 04:39:44;;;;;;;8.70;7.53;;;;;;;;;;5043656;28;20144;-77
2022/11/10 04:42:30;;;;;;;9.45;7.47;;;;;;;;;;5054977;28;20110;-76
2022/11/10 04:45:16;;;;;;;10.55;7.25;;;;;;;;;;5042878;28;20427;-76
2022/11/10 04:48:01;;;;;;;8.85;7.43;;;;;;;;;;5050006;28;20045;-76
2022/11/10 04:50:47;;;;;;;10.48;7.45;;;;;;;;;;5045508;28;20049;-75
2022/11/10 04:53:33;;;;;;;7.45;6.57;;;;;;;;;;5046025;28;20045;-76
2022/11/10 04:56:20;;;;;;;8.77;7.13;;;;;;;;;;5040300;28;20115;-77
2022/11/10 04:59:06;;;;;;;10.77;6.95;;;;;;;;;;5043159;28;20041;-77
2022/11/10 05:01:52;;;;;;;8.80;7.50;;;;;;;;;;5044772;28;20060;-77
2022/11/10 05:04:38;;;;;;;10.35;7.70;;;;;;;;;;5043573;28;20481;-76
2022/11/10 05:07:24;;;;;;;11.50;7.55;;;;;;;;;;5048427;28;20045;-76
2022/11/10 05:10:10;;;;;;;10.48;7.57;;;;;;;;;;5042767;28;20041;-76
2022/11/10 05:12:56;;;;;;;8.65;7.43;;;;;;;;;;5042740;28;20531;-77
2022/11/10 05:15:42;;;;;;;11.45;8.68;;;;;;;;;;5038476;28;20616;-76
2022/11/10 05:18:28;;;;;;;10.02;8.00;;;;;;;;;;5034316;28;20051;-76
2022/11/10 05:21:14;;;;;;;9.20;6.80;;;;;;;;;;5039385;28;20121;-76
2022/11/10 05:24:00;;;;;;;7.18;6.47;;;;;;;;;;5045006;28;20055;-77
2022/11/10 05:26:46;;;;;;;9.95;7.35;;;;;;;;;;5042625;28;20044;-76
2022/11/10 05:29:32;;;;;;;7.78;6.28;;;;;;;;;;5042022;28;20509;-76
2022/11/10 05:32:17;;;;;;;10.05;7.20;;;;;;;;;;5046900;28;20047;-76
2022/11/10 05:35:03;;;;;;;9.85;7.15;;;;;;;;;;5017697;28;20060;-77
2022/11/10 05:37:50;;;;;;;10.10;7.93;;;;;;;;;;5043722;28;20082;-76
2022/11/10 05:40:35;;;;;;;11.05;7.00;;;;;;;;;;5039749;28;20408;-76
2022/11/10 05:43:21;;;;;;;10.32;7.60;;;;;;;;;;5033231;28;20536;-75
2022/11/10 05:46:07;;;;;;;8.90;6.93;;;;;;;;;;5037425;28;20048;-75
2022/11/10 05:48:53;;;;;;;9.70;7.55;;;;;;;;;;5041689;28;20520;-75
2022/11/10 05:51:39;;;;;;;8.88;7.45;;;;;;;;;;5033299;28;20041;-76
2022/11/10 05:54:25;;;;;;;9.93;8.32;;;;;;;;;;5042302;28;20436;-75
2022/11/10 05:57:11;;;;;;;11.07;8.68;;;;;;;;;;5027616;28;20464;-76
2022/11/10 05:59:57;;;;;;;8.77;7.85;;;;;;;;;;5038793;28;20049;-76
2022/11/10 06:02:43;;;;;;;8.93;7.82;;;;;;;;;;5039940;28;20503;-76
2022/11/10 06:05:30;;;;;;;12.15;7.43;;;;;;;;;;5039406;28;20068;-76
2022/11/10 06:08:16;;;;;;;10.20;7.80;;;;;;;;;;5050113;28;20110;-76
2022/11/10 06:11:03;;;;;;;8.82;7.53;;;;;;;;;;5041020;28;20059;-76
2022/11/10 06:13:49;;;;;;;10.70;7.95;;;;;;;;;;5045559;28;20072;-76
2022/11/10 06:16:34;;;;;;;9.35;8.10;;;;;;;;;;5043091;28;20265;-76
2022/11/10 06:19:20;;;;;;;10.75;8.93;;;;;;;;;;5039537;28;20041;-77
2022/11/10 06:22:06;;;;;;;10.85;8.80;;;;;;;;;;5015789;28;20149;-76
2022/11/10 06:24:53;;;;;;;11.27;9.27;;;;;;;;;;5040336;28;20374;-75
2022/11/10 06:27:43;;;;;;;10.70;8.10;;;;;;;;;;5034371;28;20179;-76
2022/11/10 06:30:29;;;;;;;9.95;8.18;;;;;;;;;;5042396;28;20399;-76
2022/11/10 06:33:15;;;;;;;11.15;8.65;;;;;;;;;;5049474;28;20183;-76
2022/11/10 06:36:01;;;;;;;13.20;9.60;;;;;;;;;;5017615;28;20512;-76
2022/11/10 06:38:47;;;;;;;12.85;9.13;;;;;;;;;;5020455;28;20075;-76
2022/11/10 06:41:33;;;;;;;9.75;8.23;;;;;;;;;;5038694;28;20506;-75
2022/11/10 06:44:19;;;;;;;9.45;7.38;;;;;;;;;;5043338;28;20500;-76
2022/11/10 06:47:06;;;;;;;7.88;7.07;;;;;;;;;;5044452;28;20033;-76
2022/11/10 06:49:51;;;;;;;10.90;8.35;;;;;;;;;;5040261;28;20086;-76
2022/11/10 06:52:37;;;;;;;9.90;8.48;;;;;;;;;;5046733;28;20041;-76
2022/11/10 06:55:23;;;;;;;15.00;9.13;;;;;;;;;;5044495;28;20037;-77
2022/11/10 06:58:09;;;;;;;11.35;8.55;;;;;;;;;;5046540;28;20148;-76
2022/11/10 07:01:00;;;;;;;11.98;8.98;;;;;;;;;;5043851;28;20068;-76
2022/11/10 07:03:46;;;;;;;10.88;7.68;;;;;;;;;;5048224;28;20520;-76
2022/11/10 07:06:52;;;;;;;10.30;7.75;;;;;;;;;;5033562;28;20446;-76
2022/11/10 07:09:40;;;;;;;12.52;8.20;;;;;;;;;;5045033;28;20425;-76
2022/11/10 07:12:29;;;;;;;10.85;8.05;;;;;;;;;;5033031;28;20409;-76
2022/11/10 07:15:15;;;;;;;10.00;8.05;;;;;;;;;;5045223;28;20345;-75
2022/11/10 07:21:23;;;;;;;10.05;8.00;;;;;;;;;;5048308;28;20037;-76
2022/11/10 07:24:11;;;;;;;10.38;8.20;;;;;;;;;;5050306;28;20044;-76
2022/11/10 07:26:57;;;;;;;9.10;7.38;;;;;;;;;;5070175;28;20092;-76
2022/11/10 07:29:43;;;;;;;14.40;7.72;;;;;;;;;;5069637;28;20050;-76
2022/11/10 07:32:28;;;;;;;11.25;8.13;;;;;;;;;;5073378;22;20120;-79
2022/11/10 07:35:14;;;;;;;11.25;8.25;;;;;;;;;;5032101;28;20041;-79
2022/11/10 07:38:01;;;;;;;12.65;8.75;;;;;;;;;;5033100;28;20033;-78
2022/11/10 07:40:54;;;;;;;15.20;8.15;;;;;;;;;;5032299;28;20042;-78
2022/11/10 07:43:40;;;;;;;13.20;8.20;;;;;;;;;;5014673;28;20053;-79
2022/11/10 07:46:26;;;;;;;12.43;7.80;;;;;;;;;;5030984;28;20460;-78
2022/11/10 07:49:12;;;;;;;11.30;7.70;;;;;;;;;;5025083;28;20494;-78
2022/11/10 07:51:58;;;;;;;9.02;6.95;;;;;;;;;;5009844;28;20041;-79
2022/11/10 07:54:44;;;;;;;12.55;8.25;;;;;;;;;;5025976;28;20414;-77
2022/11/10 07:57:30;;;;;;;12.80;8.73;;;;;;;;;;5012145;28;20049;-78
2022/11/10 08:00:17;;;;;;;15.23;9.18;;;;;;;;;;5026543;28;20487;-80
2022/11/10 08:03:04;;;;;;;13.85;8.90;;;;;;;;;;5021709;28;20029;-79
2022/11/10 08:05:50;;;;;;;12.55;8.60;;;;;;;;;;5009312;28;20049;-78
2022/11/10 08:08:36;;;;;;;13.05;8.15;;;;;;;;;;5030374;28;20037;-78
2022/11/10 08:11:21;;;;;;;15.20;9.18;;;;;;;;;;5028491;28;20056;-78
2022/11/10 08:14:07;;;;;;;12.10;8.13;;;;;;;;;;5028592;28;20045;-78
2022/11/10 08:16:53;;;;;;;17.42;9.32;;;;;;;;;;5028948;28;20104;-78
2022/11/10 08:19:39;;;;;;;15.10;9.20;;;;;;;;;;5005354;28;20524;-78
2022/11/10 08:22:25;;;;;;;15.85;8.98;;;;;;;;;;5028327;28;20114;-78
2022/11/10 08:25:11;;;;;;;18.15;10.20;;;;;;;;;;5029634;28;20072;-79
2022/11/10 08:28:01;;;;;;;12.18;7.55;;;;;;;;;;5028069;28;20038;-78
2022/11/10 08:30:48;;;;;;;14.20;8.85;;;;;;;;;;5009820;28;20079;-78
2022/11/10 08:33:33;;;;;;;15.75;9.10;;;;;;;;;;5027095;28;20041;-77
2022/11/10 08:36:19;;;;;;;18.83;10.30;;;;;;;;;;5026489;28;20037;-78
2022/11/10 08:39:05;;;;;;;17.55;9.93;;;;;;;;;;5019277;28;20041;-78
2022/11/10 08:41:51;;;;;;;20.65;10.40;;;;;;;;;;5027835;28;20037;-80
2022/11/10 08:44:37;;;;;;;20.13;11.63;;;;;;;;;;4999897;28;20649;-79
2022/11/10 08:47:23;;;;;;;14.90;9.43;;;;;;;;;;5024561;28;20042;-79
2022/11/10 08:50:09;;;;;;;20.80;12.73;;;;;;;;;;5024776;28;20042;-78
2022/11/10 08:52:55;;;;;;;19.73;10.95;;;;;;;;;;5010676;28;20410;-78
2022/11/10 08:55:41;;;;;;;20.42;10.30;;;;;;;;;;5029185;28;20402;-79
2022/11/10 08:58:27;;;;;;;16.98;10.27;;;;;;;;;;5028751;28;20037;-79
2022/11/10 09:01:13;;;;;;;19.60;10.00;;;;;;;;;;5030943;28;20061;-78
2022/11/10 09:03:59;;;;;;;26.40;14.82;;;;;;;;;;5012416;28;20045;-78
2022/11/10 09:06:45;;;;;;;22.17;12.32;;;;;;;;;;5012219;28;20053;-79
2022/11/10 09:09:31;;;;;;;21.80;9.98;;;;;;;;;;5012582;28;20651;-79
2022/11/10 09:12:17;;;;;;;28.58;12.30;;;;;;;;;;5029791;28;20056;-78
2022/11/10 09:15:03;;;;;;;27.88;12.43;;;;;;;;;;5011688;28;20518;-78
2022/11/10 09:17:49;;;;;;;26.65;11.65;;;;;;;;;;5028638;28;20041;-79
2022/11/10 09:20:36;;;;;;;23.40;11.98;;;;;;;;;;5028535;28;20037;-79
2022/11/10 09:23:23;;;;;;;17.95;10.80;;;;;;;;;;5029357;28;20034;-78
2022/11/10 09:26:11;;;;;;;22.42;11.50;;;;;;;;;;5030139;28;20080;-78
2022/11/10 09:28:57;;;;;;;26.83;12.00;;;;;;;;;;5029416;28;20045;-78
2022/11/10 09:31:44;;;;;;;29.38;12.52;;;;;;;;;;5029937;28;20053;-79
2022/11/10 09:34:29;;;;;;;23.00;11.55;;;;;;;;;;5030379;28;20077;-79
2022/11/10 09:37:15;;;;;;;30.90;12.68;;;;;;;;;;5029855;28;20196;-80
2022/11/10 09:40:01;;;;;;;34.83;14.27;;;;;;;;;;5013184;28;20613;-78
2022/11/10 09:42:47;;;;;;;28.95;12.35;;;;;;;;;;5030011;28;20041;-79
2022/11/10 09:45:37;;;;;;;27.35;13.20;;;;;;;;;;5029528;28;20048;-79
2022/11/10 09:48:24;;;;;;;34.65;12.60;;;;;;;;;;5030776;28;20053;-79
2022/11/10 09:51:15;;;;;;;27.00;12.00;;;;;;;;;;5028224;28;20043;-78
2022/11/10 09:54:04;;;;;;;21.80;10.48;;;;;;;;;;5029427;28;20042;-78
2022/11/10 09:56:54;;;;;;;25.45;11.82;;;;;;;;;;5029076;28;20038;-79
2022/11/10 09:59:41;;;;;;;26.45;13.75;;;;;;;;;;5029000;28;20510;-79
2022/11/10 10:02:30;;;;;;;25.17;12.75;;;;;;;;;;5028822;28;20038;-77
2022/11/10 10:05:15;;;;;;;21.88;10.70;;;;;;;;;;5028901;28;20048;-78
2022/11/10 10:08:06;;;;;;;30.77;13.77;;;;;;;;;;5029517;28;20046;-78
2022/11/10 10:11:00;;;;;;;36.08;14.50;;;;;;;;;;5029253;28;20518;-78
2022/11/10 10:13:52;;;;;;;23.10;11.27;;;;;;;;;;5011102;28;20057;-78
2022/11/10 10:16:37;;;;;;;20.75;11.68;;;;;;;;;;5028962;28;20112;-79
2022/11/10 10:19:42;;;;;;;23.20;11.57;;;;;;;;;;5011580;28;20041;-80
2022/11/10 10:22:31;;;;;;;18.55;9.65;;;;;;;;;;5011361;28;20045;-79
2022/11/10 10:25:21;;;;;;;15.45;11.13;;;;;;;;;;5029487;28;20045;-79
2022/11/10 10:28:13;;;;;;;16.67;9.43;;;;;;;;;;5028663;28;20331;-78
2022/11/10 10:31:07;;;;;;;18.30;9.75;;;;;;;;;;5032995;28;20069;-78
2022/11/10 10:33:53;;;;;;;16.80;9.88;;;;;;;;;;5033615;28;20136;-77
2022/11/10 10:36:39;;;;;;;17.38;9.65;;;;;;;;;;5032937;28;20046;-78
2022/11/10 10:39:31;;;;;;;16.85;10.52;;;;;;;;;;5033303;28;20041;-78
2022/11/10 10:42:29;;;;;;;19.60;10.27;;;;;;;;;;5033047;28;20041;-79
2022/11/10 10:45:24;;;;;;;19.92;10.35;;;;;;;;;;5033340;28;20049;-78
2022/11/10 10:48:29;;;;;;;16.95;9.73;;;;;;;;;;5015744;28;20562;-77
2022/11/10 10:51:28;;;;;;;16.10;9.95;;;;;;;;;;5015363;28;20054;-76
2022/11/10 10:54:23;;;;;;;14.50;9.38;;;;;;;;;;5033049;28;20049;-77
2022/11/10 10:57:15;;;;;;;15.50;10.13;;;;;;;;;;5032553;28;20135;-78
2022/11/10 11:00:18;;;;;;;14.82;9.00;;;;;;;;;;5032972;28;20045;-77
2022/11/10 11:03:24;;;;;;;16.13;8.80;;;;;;;;;;5031979;28;20106;-78
2022/11/10 11:06:16;;;;;;;12.60;9.30;;;;;;;;;;5032962;28;20576;-80
2022/11/10 11:09:08;;;;;;;12.25;8.65;;;;;;;;;;5034811;28;20051;-78
2022/11/10 11:12:05;;;;;;;15.23;9.27;;;;;;;;;;5036239;28;20041;-78
2022/11/10 11:14:52;;;;;;;12.43;8.68;;;;;;;;;;5034585;28;20041;-78
2022/11/10 11:17:38;;;;;;;12.63;8.27;;;;;;;;;;5035645;28;20047;-79
2022/11/10 11:20:28;;;;;;;8.65;7.10;;;;;;;;;;5043595;28;20541;-80
2022/11/10 11:23:33;;;;;;;8.90;7.22;;;;;;;;;;5022491;28;20060;-79
2022/11/10 11:26:29;;;;;;;13.10;8.38;;;;;;;;;;5041588;28;20037;-81
2022/11/10 11:29:28;;;;;;;7.38;6.20;;;;;;;;;;5043405;28;20087;-80
2022/11/10 11:32:33;;;;;;;8.23;5.88;;;;;;;;;;5043418;28;20049;-79
2022/11/10 11:35:38;;;;;;;8.15;6.15;;;;;;;;;;5048517;28;20043;-78
2022/11/10 11:38:31;;;;;;;10.55;6.53;;;;;;;;;;5042496;28;20049;-80
2022/11/10 11:41:32;;;;;;;9.80;6.53;;;;;;;;;;5043518;28;20130;-79
2022/11/10 11:44:24;;;;;;;13.13;7.20;;;;;;;;;;5023089;28;20049;-80
2022/11/10 11:47:17;;;;;;;8.20;6.72;;;;;;;;;;5032555;28;20503;-78
2022/11/10 11:50:09;;;;;;;5.47;4.72;;;;;;;;;;5031448;28;20529;-78
2022/11/10 11:53:24;;;;;;;7.68;6.22;;;;;;;;;;5032502;28;20045;-79
2022/11/10 11:56:13;;;;;;;7.85;5.75;;;;;;;;;;5033482;28;20037;-79
2022/11/10 11:59:04;;;;;;;8.77;6.32;;;;;;;;;;5032623;28;20077;-78
2022/11/10 12:02:09;;;;;;;6.32;5.72;;;;;;;;;;5032112;28;20050;-78
2022/11/10 12:04:57;;;;;;;9.07;5.68;;;;;;;;;;5032742;28;20123;-78
2022/11/10 12:08:08;;;;;;;9.70;6.53;;;;;;;;;;5032585;28;20049;-78
2022/11/10 12:10:53;;;;;;;9.15;4.82;;;;;;;;;;5033867;28;20495;-78
2022/11/10 12:13:47;;;;;;;9.43;5.00;;;;;;;;;;5033650;28;20052;-80
2022/11/10 12:16:34;;;;;;;7.28;5.28;;;;;;;;;;5034241;28;20164;-79
2022/11/10 12:19:29;;;;;;;6.50;4.85;;;;;;;;;;5027323;28;20400;-79
2022/11/10 12:22:28;;;;;;;6.53;4.53;;;;;;;;;;5028733;28;20045;-79
2022/11/10 12:25:15;;;;;;;8.70;5.55;;;;;;;;;;5034177;28;20566;-80
2022/11/10 12:28:10;;;;;;;6.18;5.25;;;;;;;;;;5030513;28;20387;-79
2022/11/10 12:31:01;;;;;;;8.90;5.60;;;;;;;;;;5028931;28;20034;-78
2022/11/10 12:33:56;;;;;;;9.60;5.53;;;;;;;;;;5030277;28;20041;-80
2022/11/10 12:36:42;;;;;;;9.57;5.50;;;;;;;;;;5029487;28;20041;-79
2022/11/10 12:39:41;;;;;;;13.07;5.95;;;;;;;;;;5029468;28;20037;-81
2022/11/10 12:42:28;;;;;;;7.28;4.68;;;;;;;;;;5031317;28;20127;-79
2022/11/10 12:45:20;;;;;;;6.75;4.88;;;;;;;;;;5030968;28;20108;-80
2022/11/10 12:48:08;;;;;;;8.40;5.35;;;;;;;;;;5029845;28;20529;-79
2022/11/10 12:51:18;;;;;;;9.63;4.93;;;;;;;;;;5030585;28;20099;-79
2022/11/10 12:54:07;;;;;;;6.28;4.78;;;;;;;;;;5030164;28;20085;-79
2022/11/10 12:57:27;;;;;;;8.02;5.22;;;;;;;;;;5029348;28;20041;-79
2022/11/10 13:00:19;;;;;;;6.78;4.93;;;;;;;;;;5030184;28;20103;-80
2022/11/10 13:03:24;;;;;;;6.05;4.00;;;;;;;;;;5030869;28;20427;-80
2022/11/10 13:06:36;;;;;;;6.70;4.53;;;;;;;;;;5032096;28;20144;-79
2022/11/10 13:09:27;;;;;;;7.15;5.10;;;;;;;;;;5031096;28;20072;-79
2022/11/10 13:12:20;;;;;;;7.40;4.47;;;;;;;;;;5030397;28;20042;-79
2022/11/10 13:15:25;;;;;;;8.05;4.53;;;;;;;;;;5029792;28;20351;-80
2022/11/10 13:18:11;;;;;;;8.45;5.30;;;;;;;;;;5029587;28;20045;-77
2022/11/10 13:20:58;;;;;;;8.75;5.18;;;;;;;;;;5029779;28;20128;-79
2022/11/10 13:23:44;;;;;;;6.72;4.85;;;;;;;;;;5029102;28;20045;-78
2022/11/10 13:26:38;;;;;;;7.05;5.20;;;;;;;;;;5030311;28;20045;-77
2022/11/10 13:29:28;;;;;;;6.63;4.43;;;;;;;;;;5029638;28;20041;-78
2022/11/10 13:32:14;;;;;;;6.80;4.60;;;;;;;;;;5093637;23;20100;-75
2022/11/10 13:35:18;;;;;;;8.40;4.93;;;;;;;;;;5066749;28;20048;-75
2022/11/10 13:38:04;;;;;;;5.95;4.90;;;;;;;;;;5067470;28;20440;-75
2022/11/10 13:40:50;;;;;;;9.10;5.45;;;;;;;;;;5076694;28;20079;-77
2022/11/10 13:43:46;;;;;;;7.53;5.15;;;;;;;;;;5048026;28;20495;-75
2022/11/10 13:46:34;;;;;;;6.05;4.80;;;;;;;;;;5051671;28;20154;-75
2022/11/10 13:49:26;;;;;;;9.57;5.50;;;;;;;;;;5051106;28;20037;-76
2022/11/10 13:52:17;;;;;;;6.07;4.43;;;;;;;;;;5050947;28;20109;-76
2022/11/10 13:55:11;;;;;;;5.63;4.65;;;;;;;;;;5049675;28;20056;-76
2022/11/10 13:58:06;;;;;;;6.55;4.90;;;;;;;;;;5047675;28;20428;-77
2022/11/10 14:01:12;;;;;;;8.50;5.07;;;;;;;;;;5046502;28;20047;-76
2022/11/10 14:04:00;;;;;;;8.65;5.00;;;;;;;;;;5048163;28;20132;-75
2022/11/10 14:06:49;;;;;;;8.85;5.45;;;;;;;;;;5047214;28;20044;-76
2022/11/10 14:09:40;;;;;;;10.02;5.05;;;;;;;;;;5047764;28;20071;-76
2022/11/10 14:12:45;;;;;;;7.05;5.78;;;;;;;;;;5045690;28;20048;-76
2022/11/10 14:15:36;;;;;;;6.03;5.22;;;;;;;;;;5047487;28;20124;-76
2022/11/10 14:18:24;;;;;;;6.82;5.13;;;;;;;;;;5047809;28;20048;-76
2022/11/10 14:21:19;;;;;;;7.97;6.88;;;;;;;;;;5043603;28;20436;-76
2022/11/10 14:24:28;;;;;;;24.98;12.40;;;;;;;;;;5065657;28;20056;-74
2022/11/10 14:27:20;;;;;;;16.20;10.35;;;;;;;;;;5047220;28;20126;-75
2022/11/10 14:30:11;;;;;;;12.00;7.47;;;;;;;;;;5047842;28;20561;-75
2022/11/10 14:33:02;;;;;;;11.30;6.43;;;;;;;;;;5046757;28;20068;-74
2022/11/10 14:35:50;;;;;;;10.20;6.53;;;;;;;;;;5047224;28;20178;-75
2022/11/10 14:38:42;;;;;;;9.73;7.70;;;;;;;;;;5045577;28;20044;-76
2022/11/10 14:41:29;;;;;;;8.43;7.22;;;;;;;;;;5046219;28;20069;-76
2022/11/10 14:44:20;;;;;;;10.15;7.28;;;;;;;;;;5047676;28;20047;-76
2022/11/10 14:47:36;;;;;;;7.80;7.00;;;;;;;;;;5047361;28;20885;-76
2022/11/10 14:50:28;;;;;;;11.55;10.02;;;;;;;;;;5016685;28;20463;-75
2022/11/10 14:53:20;;;;;;;13.75;10.38;;;;;;;;;;5044665;28;20630;-76
2022/11/10 14:56:13;;;;;;;14.35;11.80;;;;;;;;;;5042584;28;20119;-76
2022/11/10 14:59:01;;;;;;;13.25;9.60;;;;;;;;;;5047054;28;20041;-76
2022/11/10 15:01:53;;;;;;;14.82;10.15;;;;;;;;;;5055080;28;20130;-76
2022/11/10 15:04:39;;;;;;;15.73;12.10;;;;;;;;;;5047141;28;20048;-76
2022/11/10 15:07:30;;;;;;;17.07;13.53;;;;;;;;;;5046945;28;20063;-76
2022/11/10 15:10:21;;;;;;;15.20;12.02;;;;;;;;;;5048500;28;20059;-74
2022/11/10 15:13:13;;;;;;;17.42;12.85;;;;;;;;;;5047560;28;20120;-75
2022/11/10 15:16:18;;;;;;;20.38;14.82;;;;;;;;;;5030799;28;20041;-75
2022/11/10 15:19:23;;;;;;;18.42;14.30;;;;;;;;;;5045817;28;20416;-76
2022/11/10 15:22:30;;;;;;;19.35;14.85;;;;;;;;;;5052314;28;20467;-75
2022/11/10 15:25:18;;;;;;;22.08;12.93;;;;;;;;;;5067861;28;20245;-75
2022/11/10 15:28:13;;;;;;;16.48;12.77;;;;;;;;;;5061592;28;20315;-76
2022/11/10 15:31:01;;;;;;;17.20;14.73;;;;;;;;;;5055909;28;20048;-75
2022/11/10 15:33:48;;;;;;;22.77;16.00;;;;;;;;;;5060970;28;20132;-76
2022/11/10 15:36:38;;;;;;;16.08;11.05;;;;;;;;;;5050719;28;20036;-76
2022/11/10 15:39:25;;;;;;;11.32;9.15;;;;;;;;;;5054451;28;20391;-76
2022/11/10 15:42:13;;;;;;;13.02;9.32;;;;;;;;;;5068934;28;20120;-75
2022/11/10 15:44:59;;;;;;;14.52;10.73;;;;;;;;;;5049797;28;20032;-75
2022/11/10 15:47:45;;;;;;;16.73;12.63;;;;;;;;;;5051333;28;20037;-76
2022/11/10 15:50:31;;;;;;;21.33;13.95;;;;;;;;;;5049505;28;20534;-75
2022/11/10 15:53:25;;;;;;;23.08;14.30;;;;;;;;;;5043597;28;20041;-76
2022/11/10 15:56:16;;;;;;;20.33;14.68;;;;;;;;;;5049141;28;20059;-76
2022/11/10 15:59:02;;;;;;;17.42;12.65;;;;;;;;;;5048203;28;20227;-76
2022/11/10 16:01:48;;;;;;;13.00;10.77;;;;;;;;;;5048727;28;20054;-75
2022/11/10 16:04:34;;;;;;;14.93;11.43;;;;;;;;;;5048481;28;20035;-76
2022/11/10 16:07:20;;;;;;;13.52;10.30;;;;;;;;;;5049817;28;20048;-76
2022/11/10 16:10:07;;;;;;;12.30;8.75;;;;;;;;;;5050357;28;20047;-74
2022/11/10 16:12:55;;;;;;;15.95;10.73;;;;;;;;;;5050446;28;20053;-75
2022/11/10 16:15:42;;;;;;;13.95;10.10;;;;;;;;;;5051014;28;20055;-76
2022/11/10 16:18:29;;;;;;;11.23;8.77;;;;;;;;;;5048335;28;20048;-76
2022/11/10 16:21:16;;;;;;;13.50;10.60;;;;;;;;;;5047936;28;20409;-77
2022/11/10 16:24:02;;;;;;;12.52;11.05;;;;;;;;;;5047825;28;20171;-76
2022/11/10 16:26:49;;;;;;;11.63;9.65;;;;;;;;;;5047264;28;20044;-77
2022/11/10 16:29:35;;;;;;;12.43;8.82;;;;;;;;;;5053707;28;20044;-75
2022/11/10 16:32:21;;;;;;;9.68;8.18;;;;;;;;;;5061968;28;20055;-74
2022/11/10 16:35:12;;;;;;;10.00;8.75;;;;;;;;;;5045390;28;20049;-77
2022/11/10 16:37:58;;;;;;;9.95;8.90;;;;;;;;;;5045520;28;20120;-75
2022/11/10 16:40:44;;;;;;;13.48;10.75;;;;;;;;;;5045701;28;20503;-76
2022/11/10 16:43:31;;;;;;;14.05;11.70;;;;;;;;;;5048808;28;20230;-75
2022/11/10 16:46:27;;;;;;;15.85;13.90;;;;;;;;;;5042675;28;20053;-74
2022/11/10 16:49:34;;;;;;;13.45;12.07;;;;;;;;;;5044652;28;20162;-75
2022/11/10 16:52:21;;;;;;;14.48;11.05;;;;;;;;;;5048727;28;20070;-75
2022/11/10 16:55:12;;;;;;;12.52;10.65;;;;;;;;;;5049353;28;20052;-75
2022/11/10 16:57:58;;;;;;;13.32;9.90;;;;;;;;;;5047200;28;20052;-75
2022/11/10 17:00:46;;;;;;;14.10;9.57;;;;;;;;;;5048629;28;20099;-75